sensor_id;sensor_type;location;lat;lon;timestamp;pressure;altitude;pressure_sealevel;temperature;humidity
67109;BME280;54027;50.786;7.058;2023-04-26T00:01:10;101403.53;;;5.69;71.43
67109;BME280;54027;50.786;7.058;2023-04-26T00:03:36;101406.84;;;5.64;71.99
67109;BME280;54027;50.786;7.058;2023-04-26T00:06:01;101411.88;;;5.59;71.78
67109;BME280;54027;50.786;7.058;2023-04-26T00:08:28;101414.31;;;5.53;72.02
67109;BME280;54027;50.786;7.058;2023-04-26T00:10:53;101414.13;;;5.46;72.73
67109;BME280;54027;50.786;7.058;2023-04-26T00:13:19;101418.22;;;5.38;73.48
67109;BME280;54027;50.786;7.058;2023-04-26T00:15:44;101405.31;;;5.33;73.74
67109;BME280;54027;50.786;7.058;2023-04-26T00:18:09;101405.13;;;5.26;74.85
67109;BME280;54027;50.786;7.058;2023-04-26T00:20:36;101403.25;;;5.18;74.77
67109;BME280;54027;50.786;7.058;2023-04-26T00:23:02;101400.50;;;5.11;75.64
67109;BME280;54027;50.786;7.058;2023-04-26T00:25:28;101401.22;;;5.04;75.35
67109;BME280;54027;50.786;7.058;2023-04-26T00:27:54;101399.34;;;4.98;75.90
67109;BME280;54027;50.786;7.058;2023-04-26T00:30:20;101398.34;;;4.92;76.42
67109;BME280;54027;50.786;7.058;2023-04-26T00:32:45;101394.78;;;4.87;77.27
67109;BME280;54027;50.786;7.058;2023-04-26T00:35:12;101393.81;;;4.82;77.53
67109;BME280;54027;50.786;7.058;2023-04-26T00:37:37;101393.72;;;4.77;77.59
67109;BME280;54027;50.786;7.058;2023-04-26T00:40:03;101388.44;;;4.71;78.25
67109;BME280;54027;50.786;7.058;2023-04-26T00:42:30;101390.06;;;4.68;78.28
67109;BME280;54027;50.786;7.058;2023-04-26T00:44:55;101390.00;;;4.66;78.11
67109;BME280;54027;50.786;7.058;2023-04-26T00:47:23;101386.59;;;4.65;77.94
67109;BME280;54027;50.786;7.058;2023-04-26T00:49:49;101386.53;;;4.62;78.03
67109;BME280;54027;50.786;7.058;2023-04-26T00:52:14;101383.00;;;4.59;79.19
67109;BME280;54027;50.786;7.058;2023-04-26T00:54:40;101380.44;;;4.59;78.18
67109;BME280;54027;50.786;7.058;2023-04-26T00:57:06;101370.13;;;4.56;77.93
67109;BME280;54027;50.786;7.058;2023-04-26T00:59:34;101373.56;;;4.56;77.96
67109;BME280;54027;50.786;7.058;2023-04-26T01:02:02;101377.81;;;4.56;77.71
67109;BME280;54027;50.786;7.058;2023-04-26T01:04:28;101373.47;;;4.53;78.29
67109;BME280;54027;50.786;7.058;2023-04-26T01:06:54;101376.81;;;4.51;78.19
67109;BME280;54027;50.786;7.058;2023-04-26T01:09:20;101378.53;;;4.50;77.46
67109;BME280;54027;50.786;7.058;2023-04-26T01:11:46;101380.16;;;4.48;77.82
67109;BME280;54027;50.786;7.058;2023-04-26T01:14:13;101379.28;;;4.48;77.46
67109;BME280;54027;50.786;7.058;2023-04-26T01:16:39;101390.41;;;4.48;77.52
67109;BME280;54027;50.786;7.058;2023-04-26T01:19:11;101388.59;;;4.44;77.66
67109;BME280;54027;50.786;7.058;2023-04-26T01:21:40;101389.34;;;4.42;78.28
67109;BME280;54027;50.786;7.058;2023-04-26T01:24:06;101392.72;;;4.39;77.85
67109;BME280;54027;50.786;7.058;2023-04-26T01:26:33;101388.34;;;4.35;77.59
67109;BME280;54027;50.786;7.058;2023-04-26T01:28:58;101399.38;;;4.33;77.96
67109;BME280;54027;50.786;7.058;2023-04-26T01:31:24;101395.09;;;4.32;79.07
67109;BME280;54027;50.786;7.058;2023-04-26T01:33:49;101402.75;;;4.32;78.49
67109;BME280;54027;50.786;7.058;2023-04-26T01:36:15;101395.03;;;4.30;78.09
67109;BME280;54027;50.786;7.058;2023-04-26T01:38:40;101392.34;;;4.26;78.64
67109;BME280;54027;50.786;7.058;2023-04-26T01:41:05;101396.44;;;4.19;79.05
67109;BME280;54027;50.786;7.058;2023-04-26T01:43:31;101393.69;;;4.12;78.96
67109;BME280;54027;50.786;7.058;2023-04-26T01:45:56;101396.94;;;4.06;79.37
67109;BME280;54027;50.786;7.058;2023-04-26T01:48:22;101395.84;;;3.98;80.40
67109;BME280;54027;50.786;7.058;2023-04-26T01:50:47;101399.00;;;3.89;80.63
67109;BME280;54027;50.786;7.058;2023-04-26T01:53:12;101398.88;;;3.85;80.94
67109;BME280;54027;50.786;7.058;2023-04-26T01:55:38;101400.41;;;3.78;81.53
67109;BME280;54027;50.786;7.058;2023-04-26T01:58:03;101403.59;;;3.71;81.97
67109;BME280;54027;50.786;7.058;2023-04-26T02:00:29;101405.09;;;3.65;82.23
67109;BME280;54027;50.786;7.058;2023-04-26T02:02:55;101398.06;;;3.58;82.23
67109;BME280;54027;50.786;7.058;2023-04-26T02:05:21;101395.38;;;3.53;82.94
67109;BME280;54027;50.786;7.058;2023-04-26T02:07:46;101397.81;;;3.48;82.84
67109;BME280;54027;50.786;7.058;2023-04-26T02:10:12;101397.66;;;3.44;83.14
67109;BME280;54027;50.786;7.058;2023-04-26T02:12:37;101403.44;;;3.38;83.34
67109;BME280;54027;50.786;7.058;2023-04-26T02:15:03;101394.84;;;3.35;83.30
67109;BME280;54027;50.786;7.058;2023-04-26T02:17:28;101398.97;;;3.31;83.31
67109;BME280;54027;50.786;7.058;2023-04-26T02:19:55;101398.88;;;3.28;83.76
67109;BME280;54027;50.786;7.058;2023-04-26T02:22:22;101391.13;;;3.25;83.24
67109;BME280;54027;50.786;7.058;2023-04-26T02:24:52;101391.84;;;3.21;83.37
67109;BME280;54027;50.786;7.058;2023-04-26T02:27:18;101397.75;;;3.20;83.48
67109;BME280;54027;50.786;7.058;2023-04-26T02:29:44;101398.59;;;3.19;83.84
67109;BME280;54027;50.786;7.058;2023-04-26T02:32:11;101399.38;;;3.17;84.05
67109;BME280;54027;50.786;7.058;2023-04-26T02:34:37;101395.94;;;3.16;84.39
67109;BME280;54027;50.786;7.058;2023-04-26T02:37:03;101401.94;;;3.17;84.20
67109;BME280;54027;50.786;7.058;2023-04-26T02:39:28;101399.31;;;3.15;84.17
67109;BME280;54027;50.786;7.058;2023-04-26T02:41:54;101393.34;;;3.15;84.65
67109;BME280;54027;50.786;7.058;2023-04-26T02:44:19;101400.13;;;3.14;85.51
67109;BME280;54027;50.786;7.058;2023-04-26T02:46:45;101398.41;;;3.13;85.60
67109;BME280;54027;50.786;7.058;2023-04-26T02:49:10;101392.47;;;3.14;85.50
67109;BME280;54027;50.786;7.058;2023-04-26T02:51:35;101394.28;;;3.17;86.04
67109;BME280;54027;50.786;7.058;2023-04-26T02:54:01;101394.38;;;3.20;86.54
67109;BME280;54027;50.786;7.058;2023-04-26T02:56:27;101402.16;;;3.24;86.42
67109;BME280;54027;50.786;7.058;2023-04-26T02:58:52;101393.69;;;3.25;86.29
67109;BME280;54027;50.786;7.058;2023-04-26T03:01:18;101394.56;;;3.26;85.77
67109;BME280;54027;50.786;7.058;2023-04-26T03:03:43;101385.16;;;3.25;85.81
67109;BME280;54027;50.786;7.058;2023-04-26T03:06:08;101383.41;;;3.24;85.49
67109;BME280;54027;50.786;7.058;2023-04-26T03:08:34;101382.59;;;3.25;85.50
67109;BME280;54027;50.786;7.058;2023-04-26T03:11:01;101393.69;;;3.25;85.74
67109;BME280;54027;50.786;7.058;2023-04-26T03:13:26;101386.03;;;3.25;86.14
67109;BME280;54027;50.786;7.058;2023-04-26T03:15:51;101384.34;;;3.26;85.76
67109;BME280;54027;50.786;7.058;2023-04-26T03:18:18;101379.31;;;3.29;85.26
67109;BME280;54027;50.786;7.058;2023-04-26T03:20:45;101387.00;;;3.29;85.14
67109;BME280;54027;50.786;7.058;2023-04-26T03:23:10;101383.66;;;3.31;85.13
67109;BME280;54027;50.786;7.058;2023-04-26T03:25:36;101387.81;;;3.29;85.60
67109;BME280;54027;50.786;7.058;2023-04-26T03:28:01;101385.19;;;3.26;85.29
67109;BME280;54027;50.786;7.058;2023-04-26T03:30:28;101391.06;;;3.24;85.02
67109;BME280;54027;50.786;7.058;2023-04-26T03:32:53;101386.69;;;3.20;85.37
67109;BME280;54027;50.786;7.058;2023-04-26T03:35:19;101378.97;;;3.18;85.51
67109;BME280;54027;50.786;7.058;2023-04-26T03:37:44;101375.44;;;3.15;85.86
67109;BME280;54027;50.786;7.058;2023-04-26T03:40:10;101377.09;;;3.13;85.25
67109;BME280;54027;50.786;7.058;2023-04-26T03:42:36;101372.81;;;3.12;85.78
67109;BME280;54027;50.786;7.058;2023-04-26T03:45:02;101374.44;;;3.10;85.68
67109;BME280;54027;50.786;7.058;2023-04-26T03:47:30;101367.50;;;3.06;85.72
67109;BME280;54027;50.786;7.058;2023-04-26T03:49:56;101374.25;;;3.04;86.24
67109;BME280;54027;50.786;7.058;2023-04-26T03:52:22;101369.13;;;3.02;86.04
67109;BME280;54027;50.786;7.058;2023-04-26T03:54:48;101376.63;;;2.97;86.14
67109;BME280;54027;50.786;7.058;2023-04-26T03:57:13;101379.13;;;2.96;86.11
67109;BME280;54027;50.786;7.058;2023-04-26T03:59:38;101374.03;;;2.96;86.15
67109;BME280;54027;50.786;7.058;2023-04-26T04:02:04;101379.06;;;2.94;86.24
67109;BME280;54027;50.786;7.058;2023-04-26T04:04:29;101378.25;;;2.95;86.46
67109;BME280;54027;50.786;7.058;2023-04-26T04:06:55;101379.16;;;2.97;86.67
67109;BME280;54027;50.786;7.058;2023-04-26T04:09:20;101386.13;;;3.02;86.93
67109;BME280;54027;50.786;7.058;2023-04-26T04:11:46;101382.91;;;3.09;86.83
67109;BME280;54027;50.786;7.058;2023-04-26T04:14:11;101380.66;;;3.18;87.05
67109;BME280;54027;50.786;7.058;2023-04-26T04:16:37;101380.03;;;3.25;86.48
67109;BME280;54027;50.786;7.058;2023-04-26T04:19:02;101383.66;;;3.31;86.37
67109;BME280;54027;50.786;7.058;2023-04-26T04:21:28;101371.06;;;3.37;86.89
67109;BME280;54027;50.786;7.058;2023-04-26T04:23:53;101379.66;;;3.41;86.46
67109;BME280;54027;50.786;7.058;2023-04-26T04:26:19;101383.09;;;3.41;85.80
67109;BME280;54027;50.786;7.058;2023-04-26T04:28:45;101389.16;;;3.45;86.14
67109;BME280;54027;50.786;7.058;2023-04-26T04:31:11;101395.25;;;3.48;85.98
67109;BME280;54027;50.786;7.058;2023-04-26T04:33:37;101391.81;;;3.48;85.98
67109;BME280;54027;50.786;7.058;2023-04-26T04:36:03;101399.53;;;3.49;85.73
67109;BME280;54027;50.786;7.058;2023-04-26T04:38:28;101394.44;;;3.49;85.20
67109;BME280;54027;50.786;7.058;2023-04-26T04:40:55;101395.28;;;3.50;85.64
67109;BME280;54027;50.786;7.058;2023-04-26T04:43:21;101393.56;;;3.49;85.56
67109;BME280;54027;50.786;7.058;2023-04-26T04:45:47;101403.91;;;3.53;85.40
67109;BME280;54027;50.786;7.058;2023-04-26T04:48:13;101398.88;;;3.57;84.76
67109;BME280;54027;50.786;7.058;2023-04-26T04:50:39;101403.19;;;3.58;84.51
67109;BME280;54027;50.786;7.058;2023-04-26T04:53:06;101407.53;;;3.60;85.19
67109;BME280;54027;50.786;7.058;2023-04-26T04:55:33;101402.53;;;3.65;84.85
67109;BME280;54027;50.786;7.058;2023-04-26T04:57:58;101406.97;;;3.70;84.56
67109;BME280;54027;50.786;7.058;2023-04-26T05:00:24;101409.66;;;3.75;84.89
67109;BME280;54027;50.786;7.058;2023-04-26T05:02:49;101403.84;;;3.80;84.34
67109;BME280;54027;50.786;7.058;2023-04-26T05:05:14;101404.97;;;3.88;84.33
67109;BME280;54027;50.786;7.058;2023-04-26T05:07:40;101412.03;;;3.97;84.27
67109;BME280;54027;50.786;7.058;2023-04-26T05:10:05;101415.75;;;4.08;83.30
67109;BME280;54027;50.786;7.058;2023-04-26T05:12:31;101416.00;;;4.17;83.17
67109;BME280;54027;50.786;7.058;2023-04-26T05:14:57;101417.94;;;4.26;82.71
67109;BME280;54027;50.786;7.058;2023-04-26T05:17:22;101414.84;;;4.37;82.00
67109;BME280;54027;50.786;7.058;2023-04-26T05:19:48;101416.84;;;4.47;80.94
67109;BME280;54027;50.786;7.058;2023-04-26T05:22:13;101413.66;;;4.56;80.57
67109;BME280;54027;50.786;7.058;2023-04-26T05:24:46;101408.94;;;4.73;80.24
67109;BME280;54027;50.786;7.058;2023-04-26T05:27:12;101410.06;;;4.84;79.89
67109;BME280;54027;50.786;7.058;2023-04-26T05:29:37;101408.66;;;4.95;79.32
67109;BME280;54027;50.786;7.058;2023-04-26T05:32:03;101402.09;;;5.06;79.35
67109;BME280;54027;50.786;7.058;2023-04-26T05:34:28;101409.22;;;5.17;78.87
67109;BME280;54027;50.786;7.058;2023-04-26T05:36:54;101400.88;;;5.26;78.45
67109;BME280;54027;50.786;7.058;2023-04-26T05:39:20;101410.47;;;5.35;77.79
67109;BME280;54027;50.786;7.058;2023-04-26T05:41:45;101405.53;;;5.44;77.89
67109;BME280;54027;50.786;7.058;2023-04-26T05:44:12;101407.34;;;5.48;77.42
67109;BME280;54027;50.786;7.058;2023-04-26T05:46:37;101404.00;;;5.50;77.04
67109;BME280;54027;50.786;7.058;2023-04-26T05:49:03;101407.50;;;5.54;77.20
67109;BME280;54027;50.786;7.058;2023-04-26T05:51:28;101406.69;;;5.56;76.24
67109;BME280;54027;50.786;7.058;2023-04-26T05:53:53;101407.56;;;5.58;76.29
67109;BME280;54027;50.786;7.058;2023-04-26T05:56:19;101401.56;;;5.58;75.83
67109;BME280;54027;50.786;7.058;2023-04-26T05:58:45;101400.59;;;5.51;75.12
67109;BME280;54027;50.786;7.058;2023-04-26T06:01:11;101408.25;;;5.50;75.21
67109;BME280;54027;50.786;7.058;2023-04-26T06:03:37;101414.25;;;5.52;75.40
67109;BME280;54027;50.786;7.058;2023-04-26T06:06:03;101406.63;;;5.53;75.43
67109;BME280;54027;50.786;7.058;2023-04-26T06:08:29;101418.75;;;5.60;75.14
67109;BME280;54027;50.786;7.058;2023-04-26T06:10:54;101417.09;;;5.64;75.17
67109;BME280;54027;50.786;7.058;2023-04-26T06:13:19;101412.88;;;5.66;75.37
67109;BME280;54027;50.786;7.058;2023-04-26T06:15:45;101410.47;;;5.72;74.21
67109;BME280;54027;50.786;7.058;2023-04-26T06:18:10;101412.28;;;5.77;74.21
67109;BME280;54027;50.786;7.058;2023-04-26T06:20:35;101410.72;;;5.84;74.09
67109;BME280;54027;50.786;7.058;2023-04-26T06:23:01;101401.44;;;5.91;73.83
67109;BME280;54027;50.786;7.058;2023-04-26T06:25:26;101409.25;;;5.97;73.22
67109;BME280;54027;50.786;7.058;2023-04-26T06:27:52;101418.06;;;6.08;73.91
67109;BME280;54027;50.786;7.058;2023-04-26T06:30:18;101406.84;;;6.04;73.41
67109;BME280;54027;50.786;7.058;2023-04-26T06:32:43;101408.69;;;6.10;73.10
67109;BME280;54027;50.786;7.058;2023-04-26T06:35:08;101415.88;;;6.27;73.40
67109;BME280;54027;50.786;7.058;2023-04-26T06:37:34;101403.34;;;6.44;72.43
67109;BME280;54027;50.786;7.058;2023-04-26T06:39:59;101403.38;;;6.47;72.02
67109;BME280;54027;50.786;7.058;2023-04-26T06:42:26;101399.13;;;6.48;71.94
67109;BME280;54027;50.786;7.058;2023-04-26T06:44:51;101414.59;;;6.51;72.03
67109;BME280;54027;50.786;7.058;2023-04-26T06:47:17;101408.88;;;6.65;72.70
67109;BME280;54027;50.786;7.058;2023-04-26T06:49:42;101404.00;;;6.80;72.19
67109;BME280;54027;50.786;7.058;2023-04-26T06:52:08;101401.78;;;7.03;71.68
67109;BME280;54027;50.786;7.058;2023-04-26T06:54:33;101377.22;;;7.17;70.47
67109;BME280;54027;50.786;7.058;2023-04-26T06:56:58;101372.22;;;7.28;70.17
67109;BME280;54027;50.786;7.058;2023-04-26T06:59:24;101386.91;;;7.35;70.54
67109;BME280;54027;50.786;7.058;2023-04-26T07:01:50;101382.72;;;7.43;70.05
67109;BME280;54027;50.786;7.058;2023-04-26T07:04:15;101375.97;;;7.50;69.95
67109;BME280;54027;50.786;7.058;2023-04-26T07:06:42;101358.94;;;7.58;69.06
67109;BME280;54027;50.786;7.058;2023-04-26T07:09:08;101348.63;;;7.58;68.24
67109;BME280;54027;50.786;7.058;2023-04-26T07:11:33;101356.63;;;7.79;68.45
67109;BME280;54027;50.786;7.058;2023-04-26T07:13:59;101350.78;;;7.92;68.58
67109;BME280;54027;50.786;7.058;2023-04-26T07:16:25;101330.38;;;8.10;67.84
67109;BME280;54027;50.786;7.058;2023-04-26T07:18:50;101329.53;;;8.11;67.68
67109;BME280;54027;50.786;7.058;2023-04-26T07:21:17;101326.47;;;8.47;67.06
67109;BME280;54027;50.786;7.058;2023-04-26T07:23:42;101300.84;;;8.65;66.50
67109;BME280;54027;50.786;7.058;2023-04-26T07:26:09;101292.38;;;8.78;65.70
67109;BME280;54027;50.786;7.058;2023-04-26T07:28:35;101293.28;;;8.86;65.23
67109;BME280;54027;50.786;7.058;2023-04-26T07:31:00;101311.41;;;8.97;66.03
67109;BME280;54027;50.786;7.058;2023-04-26T07:33:26;101266.72;;;8.99;63.93
67109;BME280;54027;50.786;7.058;2023-04-26T07:35:56;101272.78;;;9.04;63.71
67109;BME280;54027;50.786;7.058;2023-04-26T07:38:22;101279.66;;;9.05;63.74
67109;BME280;54027;50.786;7.058;2023-04-26T07:40:48;101283.13;;;9.12;64.23
67109;BME280;54027;50.786;7.058;2023-04-26T07:43:15;101271.25;;;9.40;62.99
67109;BME280;54027;50.786;7.058;2023-04-26T07:45:41;101241.19;;;9.52;61.44
67109;BME280;54027;50.786;7.058;2023-04-26T07:48:06;101243.03;;;9.73;61.09
67109;BME280;54027;50.786;7.058;2023-04-26T07:50:32;101243.91;;;9.84;60.37
67109;BME280;54027;50.786;7.058;2023-04-26T07:52:57;101247.34;;;9.95;60.39
67109;BME280;54027;50.786;7.058;2023-04-26T07:55:22;101234.44;;;9.95;59.21
67109;BME280;54027;50.786;7.058;2023-04-26T07:57:48;101226.69;;;9.91;58.86
67109;BME280;54027;50.786;7.058;2023-04-26T08:00:13;101255.97;;;9.99;60.24
67109;BME280;54027;50.786;7.058;2023-04-26T08:02:40;101248.19;;;9.87;59.12
67109;BME280;54027;50.786;7.058;2023-04-26T08:05:06;101229.25;;;9.76;58.11
67109;BME280;54027;50.786;7.058;2023-04-26T08:07:32;101252.47;;;9.80;58.73
67109;BME280;54027;50.786;7.058;2023-04-26T08:09:57;101230.97;;;9.89;58.35
67109;BME280;54027;50.786;7.058;2023-04-26T08:12:22;101261.97;;;9.98;58.95
67109;BME280;54027;50.786;7.058;2023-04-26T08:14:48;101231.84;;;9.95;57.09
67109;BME280;54027;50.786;7.058;2023-04-26T08:17:13;101229.28;;;9.98;57.84
67109;BME280;54027;50.786;7.058;2023-04-26T08:19:38;101211.22;;;10.03;56.10
67109;BME280;54027;50.786;7.058;2023-04-26T08:22:05;101208.63;;;10.09;56.52
67109;BME280;54027;50.786;7.058;2023-04-26T08:24:31;101194.88;;;10.17;55.31
67109;BME280;54027;50.786;7.058;2023-04-26T08:26:57;101203.47;;;10.24;55.96
67109;BME280;54027;50.786;7.058;2023-04-26T08:29:23;101198.31;;;10.04;55.39
67109;BME280;54027;50.786;7.058;2023-04-26T08:31:49;101204.34;;;10.20;55.73
67109;BME280;54027;50.786;7.058;2023-04-26T08:34:14;101203.47;;;10.32;56.07
67109;BME280;54027;50.786;7.058;2023-04-26T08:36:40;101185.38;;;10.44;55.11
67109;BME280;54027;50.786;7.058;2023-04-26T08:39:06;101176.72;;;10.57;53.89
67109;BME280;54027;50.786;7.058;2023-04-26T08:41:37;101186.25;;;10.50;54.44
67109;BME280;54027;50.786;7.058;2023-04-26T08:44:06;101203.47;;;10.41;54.33
67109;BME280;54027;50.786;7.058;2023-04-26T08:46:36;101201.75;;;10.41;54.24
67109;BME280;54027;50.786;7.058;2023-04-26T08:49:15;101191.38;;;10.52;53.91
67109;BME280;54027;50.786;7.058;2023-04-26T08:51:46;101205.19;;;10.52;54.54
67109;BME280;54027;50.786;7.058;2023-04-26T08:54:13;101196.53;;;10.70;54.54
67109;BME280;54027;50.786;7.058;2023-04-26T08:56:40;101178.41;;;10.79;53.08
67109;BME280;54027;50.786;7.058;2023-04-26T08:59:08;101171.47;;;10.90;52.50
67109;BME280;54027;50.786;7.058;2023-04-26T09:01:33;101164.50;;;11.07;52.55
67109;BME280;54027;50.786;7.058;2023-04-26T09:04:01;101172.28;;;11.06;53.09
67109;BME280;54027;50.786;7.058;2023-04-26T09:06:27;101142.09;;;11.05;51.55
67109;BME280;54027;50.786;7.058;2023-04-26T09:08:54;101152.38;;;11.20;51.35
67109;BME280;54027;50.786;7.058;2023-04-26T09:11:20;101160.22;;;11.09;51.95
67109;BME280;54027;50.786;7.058;2023-04-26T09:13:46;101166.19;;;11.19;52.05
67109;BME280;54027;50.786;7.058;2023-04-26T09:16:11;101168.72;;;11.35;52.21
67109;BME280;54027;50.786;7.058;2023-04-26T09:18:46;101148.84;;;11.39;50.91
67109;BME280;54027;50.786;7.058;2023-04-26T09:21:14;101150.56;;;11.42;51.18
67109;BME280;54027;50.786;7.058;2023-04-26T09:23:59;101137.56;;;11.55;49.85
67109;BME280;54027;50.786;7.058;2023-04-26T09:26:28;101102.28;;;11.36;48.70
67109;BME280;54027;50.786;7.058;2023-04-26T09:29:16;101091.09;;;11.28;47.01
67109;BME280;54027;50.786;7.058;2023-04-26T09:31:47;101084.19;;;11.30;46.84
67109;BME280;54027;50.786;7.058;2023-04-26T09:34:13;101091.97;;;11.25;46.99
67109;BME280;54027;50.786;7.058;2023-04-26T09:36:52;101091.94;;;11.34;47.43
67109;BME280;54027;50.786;7.058;2023-04-26T09:39:36;101072.03;;;11.41;46.23
67109;BME280;54027;50.786;7.058;2023-04-26T09:42:07;101081.53;;;11.41;46.05
67109;BME280;54027;50.786;7.058;2023-04-26T09:44:33;101096.84;;;11.74;47.13
67109;BME280;54027;50.786;7.058;2023-04-26T09:47:01;101065.63;;;11.90;45.19
67109;BME280;54027;50.786;7.058;2023-04-26T09:49:29;101049.28;;;11.85;44.68
67109;BME280;54027;50.786;7.058;2023-04-26T09:52:05;101040.81;;;11.67;44.09
67109;BME280;54027;50.786;7.058;2023-04-26T09:54:55;101051.19;;;11.65;44.19
67109;BME280;54027;50.786;7.058;2023-04-26T09:57:21;101056.19;;;11.85;44.65
67109;BME280;54027;50.786;7.058;2023-04-26T09:59:49;100995.72;;;11.89;41.21
67109;BME280;54027;50.786;7.058;2023-04-26T10:04:45;100996.81;;;11.65;39.74
67109;BME280;54027;50.786;7.058;2023-04-26T10:07:12;101025.25;;;11.70;42.16
67109;BME280;54027;50.786;7.058;2023-04-26T10:09:38;101052.72;;;11.86;42.99
67109;BME280;54027;50.786;7.058;2023-04-26T10:12:04;101065.72;;;11.83;44.25
67109;BME280;54027;50.786;7.058;2023-04-26T10:14:33;101083.47;;;12.22;44.81
67109;BME280;54027;50.786;7.058;2023-04-26T10:16:59;101066.88;;;12.40;44.43
67109;BME280;54027;50.786;7.058;2023-04-26T10:19:25;101105.53;;;12.61;45.58
67109;BME280;54027;50.786;7.058;2023-04-26T10:21:52;101039.75;;;12.65;42.42
67109;BME280;54027;50.786;7.058;2023-04-26T10:24:21;101062.88;;;12.83;43.77
67109;BME280;54027;50.786;7.058;2023-04-26T10:26:52;101050.41;;;13.13;43.24
67109;BME280;54027;50.786;7.058;2023-04-26T10:29:25;101036.94;;;12.83;42.79
67109;BME280;54027;50.786;7.058;2023-04-26T10:34:27;101023.25;;;12.71;41.92
67109;BME280;54027;50.786;7.058;2023-04-26T10:37:15;101003.50;;;12.64;41.19
67109;BME280;54027;50.786;7.058;2023-04-26T10:39:45;101047.31;;;12.85;42.99
67109;BME280;54027;50.786;7.058;2023-04-26T10:44:49;100998.06;;;13.40;40.04
67109;BME280;54027;50.786;7.058;2023-04-26T10:47:34;101008.97;;;13.08;40.79
67109;BME280;54027;50.786;7.058;2023-04-26T10:50:06;101015.66;;;13.21;40.95
67109;BME280;54027;50.786;7.058;2023-04-26T10:52:34;100998.44;;;13.17;40.40
67109;BME280;54027;50.786;7.058;2023-04-26T10:55:00;100985.44;;;13.19;40.32
67109;BME280;54027;50.786;7.058;2023-04-26T10:57:49;100970.19;;;12.94;38.50
67109;BME280;54027;50.786;7.058;2023-04-26T11:00:28;100994.34;;;13.03;39.37
67109;BME280;54027;50.786;7.058;2023-04-26T11:05:37;101016.69;;;13.11;41.01
67109;BME280;54027;50.786;7.058;2023-04-26T11:08:27;100999.09;;;12.67;40.05
67109;BME280;54027;50.786;7.058;2023-04-26T11:11:19;101067.75;;;12.40;42.97
67109;BME280;54027;50.786;7.058;2023-04-26T11:13:46;101068.50;;;12.49;43.12
67109;BME280;54027;50.786;7.058;2023-04-26T11:16:15;101033.31;;;12.99;40.90
67109;BME280;54027;50.786;7.058;2023-04-26T11:18:44;101031.72;;;13.46;41.70
67109;BME280;54027;50.786;7.058;2023-04-26T11:21:10;100954.63;;;13.49;37.26
67109;BME280;54027;50.786;7.058;2023-04-26T11:23:37;101013.75;;;13.35;40.37
67109;BME280;54027;50.786;7.058;2023-04-26T11:26:05;101039.56;;;12.80;41.45
67109;BME280;54027;50.786;7.058;2023-04-26T11:28:31;101031.97;;;12.65;41.23
67109;BME280;54027;50.786;7.058;2023-04-26T11:30:57;101042.75;;;12.33;42.30
67109;BME280;54027;50.786;7.058;2023-04-26T11:33:23;101052.47;;;12.12;42.73
67109;BME280;54027;50.786;7.058;2023-04-26T11:35:52;101054.13;;;12.17;43.03
67109;BME280;54027;50.786;7.058;2023-04-26T11:38:22;101034.31;;;12.15;42.28
67109;BME280;54027;50.786;7.058;2023-04-26T11:40:58;101035.69;;;12.44;42.56
67109;BME280;54027;50.786;7.058;2023-04-26T11:43:34;101067.44;;;12.65;44.20
67109;BME280;54027;50.786;7.058;2023-04-26T11:46:01;101007.34;;;12.99;41.42
67109;BME280;54027;50.786;7.058;2023-04-26T11:48:27;100983.09;;;13.55;39.83
67109;BME280;54027;50.786;7.058;2023-04-26T11:50:53;100968.66;;;13.87;39.43
67109;BME280;54027;50.786;7.058;2023-04-26T11:53:18;100959.59;;;13.11;39.04
67109;BME280;54027;50.786;7.058;2023-04-26T11:55:44;100966.56;;;13.08;39.41
67109;BME280;54027;50.786;7.058;2023-04-26T11:58:12;100981.97;;;12.57;40.09
67109;BME280;54027;50.786;7.058;2023-04-26T12:00:57;100982.50;;;12.80;40.25
67109;BME280;54027;50.786;7.058;2023-04-26T12:03:27;100986.00;;;12.76;40.69
67109;BME280;54027;50.786;7.058;2023-04-26T12:05:53;100997.16;;;13.42;40.77
67109;BME280;54027;50.786;7.058;2023-04-26T12:08:23;101002.72;;;13.20;41.53
67109;BME280;54027;50.786;7.058;2023-04-26T12:10:48;100987.25;;;13.12;40.18
67109;BME280;54027;50.786;7.058;2023-04-26T12:13:14;101010.56;;;13.17;41.48
67109;BME280;54027;50.786;7.058;2023-04-26T12:15:39;100994.75;;;13.82;40.77
67109;BME280;54027;50.786;7.058;2023-04-26T12:18:07;100952.69;;;13.62;38.76
67109;BME280;54027;50.786;7.058;2023-04-26T12:20:34;100968.09;;;13.71;38.81
67109;BME280;54027;50.786;7.058;2023-04-26T12:23:05;100964.72;;;13.68;38.24
67109;BME280;54027;50.786;7.058;2023-04-26T12:25:35;100974.94;;;13.77;40.22
67109;BME280;54027;50.786;7.058;2023-04-26T12:28:03;100946.53;;;14.10;37.60
67109;BME280;54027;50.786;7.058;2023-04-26T12:30:29;100978.78;;;14.02;40.15
67109;BME280;54027;50.786;7.058;2023-04-26T12:32:55;100948.53;;;13.98;38.13
67109;BME280;54027;50.786;7.058;2023-04-26T12:35:24;100995.81;;;14.18;40.23
67109;BME280;54027;50.786;7.058;2023-04-26T12:37:50;100921.91;;;14.70;36.31
67109;BME280;54027;50.786;7.058;2023-04-26T12:40:18;100939.44;;;14.61;37.67
67109;BME280;54027;50.786;7.058;2023-04-26T12:42:46;100949.34;;;14.44;38.36
67109;BME280;54027;50.786;7.058;2023-04-26T12:45:11;100925.28;;;14.33;37.14
67109;BME280;54027;50.786;7.058;2023-04-26T12:47:36;100916.06;;;14.97;36.17
67109;BME280;54027;50.786;7.058;2023-04-26T12:50:02;100923.47;;;15.13;36.63
67109;BME280;54027;50.786;7.058;2023-04-26T12:52:29;100904.69;;;15.68;35.27
67109;BME280;54027;50.786;7.058;2023-04-26T12:54:54;100925.69;;;16.25;35.66
67109;BME280;54027;50.786;7.058;2023-04-26T12:57:20;100901.28;;;15.33;34.69
67109;BME280;54027;50.786;7.058;2023-04-26T12:59:46;100935.44;;;14.85;35.89
67109;BME280;54027;50.786;7.058;2023-04-26T13:02:11;100970.19;;;14.43;37.72
67109;BME280;54027;50.786;7.058;2023-04-26T13:04:36;100926.63;;;14.52;35.53
67109;BME280;54027;50.786;7.058;2023-04-26T13:07:02;100926.75;;;14.46;36.18